Terminal Aerodrome Forecast
Issued by NWS Albany, NY

Home | Current Version | Previous Version | Text Only | Print | Product List | Glossary On
Versions: 1 2 3 4 5 6 7 8 9 10 11 12 13 14 15 16 17 18 19 20 21 22 23 24
919
FTUS41 KALY 280538
TAFPOU
TAF
KPOU 280538Z 2806/0106 00000KT P6SM OVC060
     FM281500 VRB03KT P6SM BKN060
     FM281800 15005KT P6SM SCT060 OVC150
     FM282300 14004KT 6SM -RA BR SCT020 OVC040
     FM010200 VRB03KT 3SM -RA BR SCT008 OVC020=

USA.gov is the U.S. government's official web portal to all federal, state and local government web resources and services.